QFA2495 YSSY-YMML
Flight info
| Callsign | QFA2495 |
|---|---|
| Flight time | 1h 14m |
| Altitude | 32000 |
| Route | WOL H65 LEECE Q29 ML |
| Aircraft | B739/M-SDE2E3FGHIRWXY/LB1 |
Departure
| Time | 2026-05-04 09:44 |
|---|---|
| Airport | Sydney Kingsford Smith International Airport (YSSY) |
Arrival
| Time | 2026-05-04 10:58 |
|---|---|
| Airport | Melbourne Airport (YMML) |
| Time | Latitude | Longitude | Altitude | Speed | Heading |
|---|---|---|---|---|---|
| 2026-05-04 09:03 | -33.93155 | 151.17857 | 30 ft | 0 kts | 190° |
| 2026-05-04 09:14 | -33.93151 | 151.17858 | 28 ft | 2 kts | 186° |
| 2026-05-04 09:14 | -33.93135 | 151.17861 | 29 ft | 2 kts | 189° |
| 2026-05-04 09:15 | -33.93118 | 151.17864 | 29 ft | 2 kts | 175° |
| 2026-05-04 09:15 | -33.93102 | 151.17861 | 29 ft | 2 kts | 179° |
| 2026-05-04 09:15 | -33.93086 | 151.17865 | 28 ft | 2 kts | 214° |
| 2026-05-04 09:15 | -33.93075 | 151.17880 | 27 ft | 2 kts | 253° |
| 2026-05-04 09:17 | -33.93078 | 151.17906 | 28 ft | 0 kts | 282° |
| 2026-05-04 09:25 | -33.93055 | 151.17759 | 30 ft | 7 kts | 290° |
| 2026-05-04 09:25 | -33.93033 | 151.17704 | 29 ft | 7 kts | 295° |
| 2026-05-04 09:26 | -33.93014 | 151.17644 | 29 ft | 9 kts | 285° |
| 2026-05-04 09:26 | -33.93008 | 151.17567 | 29 ft | 9 kts | 248° |
| 2026-05-04 09:26 | -33.93070 | 151.17526 | 29 ft | 11 kts | 200° |
| 2026-05-04 09:26 | -33.93150 | 151.17533 | 29 ft | 15 kts | 168° |
| 2026-05-04 09:27 | -33.93260 | 151.17561 | 29 ft | 16 kts | 168° |
| 2026-05-04 09:27 | -33.93380 | 151.17591 | 29 ft | 22 kts | 171° |
| 2026-05-04 09:27 | -33.93537 | 151.17598 | 27 ft | 23 kts | 168° |
| 2026-05-04 09:27 | -33.93624 | 151.17623 | 28 ft | 10 kts | 163° |
| 2026-05-04 09:28 | -33.93708 | 151.17675 | 25 ft | 22 kts | 159° |
| 2026-05-04 09:28 | -33.93861 | 151.17748 | 20 ft | 24 kts | 135° |
| 2026-05-04 09:28 | -33.94013 | 151.17808 | 22 ft | 23 kts | 170° |
| 2026-05-04 09:28 | -33.94167 | 151.17848 | 23 ft | 22 kts | 167° |
| 2026-05-04 09:29 | -33.94239 | 151.17869 | 24 ft | 1 kts | 167° |
| 2026-05-04 09:29 | -33.94246 | 151.17870 | 25 ft | 1 kts | 166° |
| 2026-05-04 09:29 | -33.94255 | 151.17873 | 27 ft | 6 kts | 168° |
| 2026-05-04 09:29 | -33.94322 | 151.17888 | 25 ft | 10 kts | 164° |
| 2026-05-04 09:30 | -33.94390 | 151.17907 | 25 ft | 10 kts | 168° |
| 2026-05-04 09:30 | -33.94466 | 151.17901 | 25 ft | 16 kts | 205° |
| 2026-05-04 09:30 | -33.94574 | 151.17896 | 26 ft | 16 kts | 167° |
| 2026-05-04 09:30 | -33.94682 | 151.17924 | 24 ft | 16 kts | 167° |
| 2026-05-04 09:31 | -33.94821 | 151.17960 | 21 ft | 25 kts | 168° |
| 2026-05-04 09:31 | -33.94985 | 151.18003 | 23 ft | 23 kts | 168° |
| 2026-05-04 09:31 | -33.95096 | 151.18048 | 26 ft | 15 kts | 129° |
| 2026-05-04 09:31 | -33.95096 | 151.18143 | 24 ft | 9 kts | 78° |
| 2026-05-04 09:32 | -33.95087 | 151.18194 | 25 ft | 0 kts | 77° |
| 2026-05-04 09:32 | -33.95083 | 151.18218 | 23 ft | 5 kts | 77° |
| 2026-05-04 09:34 | -33.95062 | 151.18328 | 27 ft | 3 kts | 77° |
| 2026-05-04 09:34 | -33.95056 | 151.18365 | 24 ft | 5 kts | 79° |
| 2026-05-04 09:34 | -33.95046 | 151.18427 | 27 ft | 12 kts | 78° |
| 2026-05-04 09:34 | -33.95074 | 151.18506 | 25 ft | 11 kts | 148° |
| 2026-05-04 09:35 | -33.95146 | 151.18575 | 25 ft | 17 kts | 135° |
| 2026-05-04 09:35 | -33.95235 | 151.18670 | 24 ft | 17 kts | 143° |
| 2026-05-04 09:35 | -33.95325 | 151.18722 | 26 ft | 14 kts | 163° |
| 2026-05-04 09:35 | -33.95430 | 151.18751 | 21 ft | 20 kts | 168° |
| 2026-05-04 09:37 | -33.96353 | 151.18992 | 23 ft | 21 kts | 168° |
| 2026-05-04 09:37 | -33.96507 | 151.19031 | 18 ft | 23 kts | 168° |
| 2026-05-04 09:38 | -33.96661 | 151.19072 | 19 ft | 22 kts | 169° |
| 2026-05-04 09:38 | -33.96814 | 151.19068 | 16 ft | 22 kts | 175° |
| 2026-05-04 09:38 | -33.96961 | 151.19104 | 17 ft | 21 kts | 168° |
| 2026-05-04 09:38 | -33.97081 | 151.19136 | 18 ft | 13 kts | 167° |
| 2026-05-04 09:39 | -33.97132 | 151.19205 | 21 ft | 11 kts | 88° |
| 2026-05-04 09:39 | -33.97122 | 151.19263 | 20 ft | 0 kts | 77° |
| 2026-05-04 09:42 | -33.97073 | 151.19379 | 21 ft | 0 kts | 348° |
| 2026-05-04 09:43 | -33.97071 | 151.19379 | 21 ft | 3 kts | 348° |
| 2026-05-04 09:43 | -33.96787 | 151.19305 | 17 ft | 81 kts | 348° |
| 2026-05-04 09:43 | -33.96013 | 151.19104 | 28 ft | 143 kts | 348° |
| 2026-05-04 09:44 | -33.94927 | 151.18827 | 379 ft | 167 kts | 352° |
| 2026-05-04 09:44 | -33.93748 | 151.18962 | 1000 ft | 179 kts | 25° |
| 2026-05-04 09:44 | -33.92848 | 151.20055 | 1693 ft | 190 kts | 56° |
| 2026-05-04 09:46 | -33.93621 | 151.33265 | 4009 ft | 274 kts | 83° |
| 2026-05-04 09:46 | -33.93541 | 151.35570 | 4019 ft | 276 kts | 81° |
| 2026-05-04 09:46 | -33.93455 | 151.37883 | 4020 ft | 277 kts | 85° |
| 2026-05-04 09:47 | -33.93497 | 151.40196 | 4008 ft | 276 kts | 87° |
| 2026-05-04 09:47 | -33.93582 | 151.42464 | 4467 ft | 271 kts | 88° |
| 2026-05-04 09:49 | -33.98703 | 151.57741 | 8221 ft | 308 kts | 113° |
| 2026-05-04 09:49 | -33.99720 | 151.60019 | 8803 ft | 313 kts | 126° |
| 2026-05-04 09:49 | -34.01341 | 151.61768 | 9433 ft | 315 kts | 148° |
| 2026-05-04 09:51 | -34.14204 | 151.70115 | 11760 ft | 387 kts | 154° |
| 2026-05-04 09:51 | -34.16788 | 151.71102 | 12041 ft | 395 kts | 178° |
| 2026-05-04 09:51 | -34.19484 | 151.70696 | 12581 ft | 389 kts | 205° |
| 2026-05-04 09:51 | -34.21763 | 151.69037 | 13173 ft | 381 kts | 226° |
| 2026-05-04 09:52 | -34.23515 | 151.66682 | 13749 ft | 376 kts | 241° |
| 2026-05-04 09:52 | -34.24718 | 151.63894 | 14259 ft | 374 kts | 250° |
| 2026-05-04 09:52 | -34.25782 | 151.61010 | 14800 ft | 376 kts | 251° |
| 2026-05-04 09:52 | -34.26829 | 151.58110 | 15333 ft | 379 kts | 251° |
| 2026-05-04 09:53 | -34.27889 | 151.55176 | 15887 ft | 381 kts | 251° |
| 2026-05-04 09:53 | -34.28960 | 151.52230 | 16426 ft | 384 kts | 251° |
| 2026-05-04 09:53 | -34.30043 | 151.49273 | 16958 ft | 386 kts | 251° |
| 2026-05-04 09:53 | -34.31140 | 151.46295 | 17469 ft | 389 kts | 251° |
| 2026-05-04 09:54 | -34.32247 | 151.43299 | 17973 ft | 392 kts | 251° |
| 2026-05-04 09:54 | -34.33365 | 151.40273 | 18455 ft | 394 kts | 251° |
| 2026-05-04 09:54 | -34.34489 | 151.37237 | 18917 ft | 396 kts | 251° |
| 2026-05-04 09:54 | -34.35613 | 151.34198 | 19397 ft | 397 kts | 251° |
| 2026-05-04 09:55 | -34.36741 | 151.31144 | 19883 ft | 398 kts | 251° |
| 2026-05-04 09:55 | -34.37872 | 151.28081 | 20370 ft | 399 kts | 251° |
| 2026-05-04 09:55 | -34.39007 | 151.25005 | 20846 ft | 400 kts | 251° |
| 2026-05-04 09:55 | -34.40142 | 151.21920 | 21294 ft | 402 kts | 251° |
| 2026-05-04 09:56 | -34.41269 | 151.18857 | 21726 ft | 404 kts | 251° |
| 2026-05-04 09:56 | -34.42413 | 151.15743 | 22158 ft | 406 kts | 252° |
| 2026-05-04 09:56 | -34.43561 | 151.12618 | 22602 ft | 407 kts | 252° |
| 2026-05-04 09:56 | -34.44713 | 151.09479 | 23036 ft | 408 kts | 252° |
| 2026-05-04 09:57 | -34.45867 | 151.06329 | 23474 ft | 410 kts | 252° |
| 2026-05-04 09:57 | -34.47026 | 151.03166 | 23839 ft | 411 kts | 252° |
| 2026-05-04 09:57 | -34.48188 | 150.99989 | 24173 ft | 413 kts | 252° |
| 2026-05-04 09:57 | -34.49356 | 150.96789 | 24505 ft | 415 kts | 252° |
| 2026-05-04 09:58 | -34.50528 | 150.93579 | 24835 ft | 417 kts | 253° |
| 2026-05-04 09:58 | -34.51703 | 150.90359 | 25167 ft | 419 kts | 253° |
| 2026-05-04 09:58 | -34.52885 | 150.87116 | 25478 ft | 421 kts | 253° |
| 2026-05-04 10:00 | -34.64007 | 150.65375 | 27559 ft | 447 kts | 240° |
| 2026-05-04 10:00 | -34.65874 | 150.62337 | 27833 ft | 449 kts | 241° |
| 2026-05-04 10:02 | -34.78744 | 150.40915 | 30447 ft | 444 kts | 242° |
| 2026-05-04 10:04 | -34.91243 | 150.19926 | 32045 ft | 435 kts | 242° |
| 2026-05-04 10:04 | -34.94787 | 150.13953 | 32051 ft | 434 kts | 242° |
| 2026-05-04 10:05 | -34.98317 | 150.07993 | 32063 ft | 433 kts | 243° |
| 2026-05-04 10:05 | -35.01841 | 150.02032 | 32068 ft | 433 kts | 243° |
| 2026-05-04 10:06 | -35.05361 | 149.96071 | 32064 ft | 433 kts | 243° |
| 2026-05-04 10:06 | -35.08883 | 149.90104 | 32064 ft | 433 kts | 243° |
| 2026-05-04 10:08 | -35.21238 | 149.69105 | 32061 ft | 437 kts | 243° |
| 2026-05-04 10:08 | -35.24784 | 149.63056 | 32064 ft | 437 kts | 243° |
| 2026-05-04 10:09 | -35.28321 | 149.57011 | 32071 ft | 437 kts | 243° |
| 2026-05-04 10:09 | -35.31851 | 149.50969 | 32074 ft | 435 kts | 243° |
| 2026-05-04 10:10 | -35.35333 | 149.44998 | 32088 ft | 433 kts | 243° |
| 2026-05-04 10:10 | -35.38837 | 149.38974 | 32095 ft | 435 kts | 243° |
| 2026-05-04 10:11 | -35.42344 | 149.32935 | 32097 ft | 435 kts | 243° |
| 2026-05-04 10:11 | -35.45852 | 149.26887 | 32100 ft | 434 kts | 243° |
| 2026-05-04 10:12 | -35.49347 | 149.20854 | 32102 ft | 433 kts | 243° |
| 2026-05-04 10:12 | -35.52839 | 149.14809 | 32091 ft | 435 kts | 243° |
| 2026-05-04 10:13 | -35.56337 | 149.08746 | 32086 ft | 435 kts | 243° |
| 2026-05-04 10:13 | -35.59831 | 149.02681 | 32079 ft | 435 kts | 243° |
| 2026-05-04 10:14 | -35.63319 | 148.96617 | 32097 ft | 434 kts | 243° |
| 2026-05-04 10:16 | -35.77193 | 148.72378 | 32094 ft | 434 kts | 244° |
| 2026-05-04 10:16 | -35.80668 | 148.66280 | 32087 ft | 435 kts | 244° |
| 2026-05-04 10:17 | -35.84143 | 148.60171 | 32086 ft | 435 kts | 244° |
| 2026-05-04 10:19 | -35.97999 | 148.35601 | 32096 ft | 438 kts | 244° |
| 2026-05-04 10:19 | -36.01470 | 148.29404 | 32091 ft | 439 kts | 244° |
| 2026-05-04 10:20 | -36.04941 | 148.23199 | 32089 ft | 439 kts | 244° |
| 2026-05-04 10:20 | -36.08415 | 148.16976 | 32080 ft | 440 kts | 244° |
| 2026-05-04 10:21 | -36.11889 | 148.10744 | 32084 ft | 440 kts | 244° |
| 2026-05-04 10:21 | -36.15360 | 148.04532 | 32080 ft | 438 kts | 243° |
| 2026-05-04 10:22 | -36.20565 | 147.95204 | 32077 ft | 439 kts | 244° |
| 2026-05-04 10:23 | -36.24034 | 147.88969 | 32077 ft | 440 kts | 244° |
| 2026-05-04 10:25 | -36.37882 | 147.63957 | 32066 ft | 441 kts | 244° |
| 2026-05-04 10:25 | -36.41341 | 147.57669 | 32066 ft | 441 kts | 244° |
| 2026-05-04 10:26 | -36.44800 | 147.51369 | 32066 ft | 442 kts | 244° |
| 2026-05-04 10:26 | -36.48259 | 147.45058 | 32059 ft | 442 kts | 244° |
| 2026-05-04 10:27 | -36.51725 | 147.38724 | 32054 ft | 443 kts | 244° |
| 2026-05-04 10:27 | -36.55186 | 147.32388 | 31719 ft | 444 kts | 244° |
| 2026-05-04 10:27 | -36.56921 | 147.29205 | 31461 ft | 445 kts | 244° |
| 2026-05-04 10:28 | -36.58658 | 147.26018 | 31250 ft | 445 kts | 244° |
| 2026-05-04 10:28 | -36.60401 | 147.22815 | 31008 ft | 448 kts | 244° |
| 2026-05-04 10:28 | -36.62151 | 147.19595 | 30770 ft | 450 kts | 244° |
| 2026-05-04 10:28 | -36.63903 | 147.16369 | 30526 ft | 450 kts | 244° |
| 2026-05-04 10:29 | -36.65629 | 147.13190 | 30291 ft | 448 kts | 244° |
| 2026-05-04 10:29 | -36.67373 | 147.09978 | 30108 ft | 448 kts | 244° |
| 2026-05-04 10:29 | -36.69122 | 147.06749 | 30076 ft | 451 kts | 245° |
| 2026-05-04 10:30 | -36.72660 | 147.00205 | 29888 ft | 460 kts | 244° |
| 2026-05-04 10:30 | -36.74454 | 146.96890 | 29618 ft | 462 kts | 244° |
| 2026-05-04 10:30 | -36.76250 | 146.93574 | 29323 ft | 461 kts | 244° |
| 2026-05-04 10:30 | -36.78035 | 146.90280 | 29041 ft | 454 kts | 244° |
| 2026-05-04 10:31 | -36.79780 | 146.87065 | 28634 ft | 443 kts | 245° |
| 2026-05-04 10:31 | -36.81487 | 146.83912 | 28214 ft | 438 kts | 245° |
| 2026-05-04 10:32 | -36.91888 | 146.64521 | 25844 ft | 453 kts | 244° |
| 2026-05-04 10:33 | -36.93049 | 146.62356 | 25585 ft | 453 kts | 244° |
| 2026-05-04 10:33 | -36.95385 | 146.57998 | 25078 ft | 450 kts | 244° |
| 2026-05-04 10:33 | -36.96534 | 146.55852 | 24819 ft | 448 kts | 244° |
| 2026-05-04 10:33 | -36.98849 | 146.51520 | 24328 ft | 446 kts | 243° |
| 2026-05-04 10:34 | -36.99989 | 146.49384 | 24085 ft | 444 kts | 243° |
| 2026-05-04 10:34 | -37.01696 | 146.46182 | 23721 ft | 441 kts | 243° |
| 2026-05-04 10:34 | -37.03380 | 146.43023 | 23309 ft | 431 kts | 243° |
| 2026-05-04 10:34 | -37.05042 | 146.39898 | 22933 ft | 434 kts | 243° |
| 2026-05-04 10:35 | -37.06719 | 146.36735 | 22561 ft | 438 kts | 243° |
| 2026-05-04 10:35 | -37.08404 | 146.33564 | 22191 ft | 435 kts | 242° |
| 2026-05-04 10:35 | -37.10059 | 146.30451 | 21808 ft | 425 kts | 243° |
| 2026-05-04 10:35 | -37.11693 | 146.27366 | 21455 ft | 425 kts | 243° |
| 2026-05-04 10:36 | -37.13324 | 146.24276 | 21104 ft | 425 kts | 242° |
| 2026-05-04 10:36 | -37.14951 | 146.21193 | 20754 ft | 422 kts | 242° |
| 2026-05-04 10:36 | -37.16562 | 146.18139 | 20406 ft | 418 kts | 243° |
| 2026-05-04 10:36 | -37.18160 | 146.15107 | 20051 ft | 415 kts | 243° |
| 2026-05-04 10:37 | -37.19746 | 146.12096 | 19715 ft | 413 kts | 243° |
| 2026-05-04 10:37 | -37.21326 | 146.09092 | 19379 ft | 411 kts | 243° |
| 2026-05-04 10:37 | -37.22889 | 146.06118 | 19038 ft | 407 kts | 243° |
| 2026-05-04 10:37 | -37.24437 | 146.03171 | 18744 ft | 401 kts | 243° |
| 2026-05-04 10:39 | -37.34783 | 145.87702 | 16911 ft | 400 kts | 220° |
| 2026-05-04 10:39 | -37.37104 | 145.85784 | 16576 ft | 398 kts | 219° |
| 2026-05-04 10:39 | -37.39414 | 145.83901 | 16306 ft | 394 kts | 219° |
| 2026-05-04 10:40 | -37.41715 | 145.82014 | 16066 ft | 394 kts | 219° |
| 2026-05-04 10:40 | -37.44000 | 145.80124 | 15816 ft | 393 kts | 220° |
| 2026-05-04 10:40 | -37.46279 | 145.78224 | 15569 ft | 393 kts | 220° |
| 2026-05-04 10:40 | -37.48550 | 145.76319 | 15319 ft | 392 kts | 220° |
| 2026-05-04 10:41 | -37.50817 | 145.74412 | 15075 ft | 391 kts | 220° |
| 2026-05-04 10:41 | -37.53065 | 145.72519 | 14827 ft | 388 kts | 220° |
| 2026-05-04 10:41 | -37.55304 | 145.70630 | 14585 ft | 385 kts | 220° |
| 2026-05-04 10:41 | -37.57509 | 145.68770 | 14325 ft | 377 kts | 220° |
| 2026-05-04 10:42 | -37.59664 | 145.66951 | 14087 ft | 369 kts | 220° |
| 2026-05-04 10:42 | -37.61768 | 145.65175 | 13834 ft | 358 kts | 220° |
| 2026-05-04 10:42 | -37.63733 | 145.63351 | 13560 ft | 341 kts | 232° |
| 2026-05-04 10:42 | -37.64961 | 145.60969 | 13261 ft | 312 kts | 260° |
| 2026-05-04 10:43 | -37.65100 | 145.58404 | 13011 ft | 280 kts | 290° |
| 2026-05-04 10:44 | -37.59612 | 145.44286 | 11317 ft | 250 kts | 290° |
| 2026-05-04 10:45 | -37.59686 | 145.42004 | 11112 ft | 279 kts | 257° |
| 2026-05-04 10:45 | -37.60777 | 145.39883 | 10988 ft | 299 kts | 236° |
| 2026-05-04 10:45 | -37.62231 | 145.37968 | 10856 ft | 304 kts | 233° |
| 2026-05-04 10:45 | -37.63732 | 145.36088 | 10685 ft | 304 kts | 232° |
| 2026-05-04 10:46 | -37.65221 | 145.34251 | 10528 ft | 302 kts | 232° |
| 2026-05-04 10:46 | -37.66719 | 145.32406 | 10366 ft | 300 kts | 232° |
| 2026-05-04 10:46 | -37.68211 | 145.30571 | 10129 ft | 299 kts | 232° |
| 2026-05-04 10:46 | -37.69697 | 145.28745 | 9756 ft | 298 kts | 232° |
| 2026-05-04 10:47 | -37.71178 | 145.26921 | 9231 ft | 297 kts | 231° |
| 2026-05-04 10:47 | -37.72643 | 145.25099 | 8719 ft | 295 kts | 231° |
| 2026-05-04 10:47 | -37.74094 | 145.23276 | 8233 ft | 292 kts | 231° |
| 2026-05-04 10:47 | -37.75509 | 145.21484 | 7829 ft | 285 kts | 231° |
| 2026-05-04 10:49 | -37.84745 | 145.09376 | 5042 ft | 259 kts | 232° |
| 2026-05-04 10:49 | -37.85964 | 145.07744 | 4851 ft | 252 kts | 232° |
| 2026-05-04 10:50 | -37.87154 | 145.06148 | 4537 ft | 247 kts | 232° |
| 2026-05-04 10:51 | -37.91589 | 144.95497 | 2991 ft | 185 kts | 302° |
| 2026-05-04 10:52 | -37.90946 | 144.94128 | 2980 ft | 177 kts | 302° |
| 2026-05-04 10:52 | -37.90328 | 144.92794 | 2990 ft | 175 kts | 302° |
| 2026-05-04 10:52 | -37.89708 | 144.91454 | 2992 ft | 177 kts | 302° |
| 2026-05-04 10:54 | -37.82676 | 144.86754 | 2605 ft | 164 kts | 346° |
| 2026-05-04 10:54 | -37.81572 | 144.86530 | 2534 ft | 154 kts | 346° |
| 2026-05-04 10:56 | -37.75042 | 144.85306 | 1686 ft | 130 kts | 348° |
| 2026-05-04 10:56 | -37.74137 | 144.85137 | 1514 ft | 133 kts | 349° |
| 2026-05-04 10:56 | -37.73223 | 144.84967 | 1317 ft | 132 kts | 350° |
| 2026-05-04 10:57 | -37.72318 | 144.84798 | 1140 ft | 133 kts | 350° |
| 2026-05-04 10:57 | -37.71390 | 144.84617 | 1003 ft | 138 kts | 351° |
| 2026-05-04 10:57 | -37.70439 | 144.84437 | 812 ft | 139 kts | 353° |
| 2026-05-04 10:57 | -37.69496 | 144.84265 | 615 ft | 135 kts | 352° |
| 2026-05-04 10:58 | -37.68578 | 144.84098 | 400 ft | 132 kts | 353° |
| 2026-05-04 10:58 | -37.67733 | 144.83946 | 362 ft | 109 kts | 351° |
| 2026-05-04 10:58 | -37.67096 | 144.83825 | 384 ft | 76 kts | 352° |
| 2026-05-04 10:58 | -37.66699 | 144.83751 | 396 ft | 38 kts | 352° |
| 2026-05-04 10:59 | -37.66533 | 144.83789 | 402 ft | 5 kts | 46° |
| 2026-05-04 10:59 | -37.66517 | 144.83819 | 398 ft | 4 kts | 64° |
| 2026-05-04 10:59 | -37.66509 | 144.83853 | 402 ft | 4 kts | 83° |
| 2026-05-04 10:59 | -37.66509 | 144.83868 | 402 ft | 0 kts | 89° |
| 2026-05-04 11:01 | -37.66518 | 144.84048 | 402 ft | 3 kts | 94° |
| 2026-05-04 11:02 | -37.66519 | 144.84075 | 403 ft | 3 kts | 94° |
| 2026-05-04 11:02 | -37.66521 | 144.84102 | 404 ft | 3 kts | 93° |
| 2026-05-04 11:05 | -37.66800 | 144.84899 | 397 ft | 4 kts | 81° |
| 2026-05-04 11:06 | -37.66798 | 144.84915 | 397 ft | 0 kts | 82° |